Time;durP1;ratioP1;P1;durP2;ratioP2;P2;SDS_P1;SDS_P2;PMS_P1;PMS_P2;Temp;Humidity;BMP_temperature;BMP_pressure;BME280_temperature;BME280_humidity;BME280_pressure;Samples;Min_cycle;Max_cycle;Signal;HPM_P1;HPM_P2
2021/09/23 00:00:57;;;;;;;30.20;18.70;;;;;;;12.00;67.69;99604.77;236399;1194;138715;-59
2021/09/23 00:06:01;;;;;;;29.30;20.10;;;;;;;11.98;67.67;99603.83;236353;1195;138770;-60
2021/09/23 00:11:04;;;;;;;30.30;20.50;;;;;;;12.00;67.84;99601.05;236246;1195;138961;-63
2021/09/23 00:16:08;;;;;;;33.90;20.00;;;;;;;11.98;67.93;99599.20;236367;1195;139048;-66
2021/09/23 00:21:11;;;;;;;29.80;19.30;;;;;;;12.00;67.91;99597.14;236247;1195;140179;-62
2021/09/23 00:26:14;;;;;;;32.40;20.30;;;;;;;12.02;68.02;99586.69;236142;1195;139143;-65
2021/09/23 00:31:18;;;;;;;32.40;20.80;;;;;;;12.04;68.00;99578.02;236204;1195;138954;-63
2021/09/23 00:36:21;;;;;;;32.10;21.60;;;;;;;12.08;68.16;99574.77;236299;1195;139034;-62
2021/09/23 00:41:24;;;;;;;36.80;22.50;;;;;;;12.11;68.06;99572.51;235931;1195;138990;-65
2021/09/23 00:46:27;;;;;;;36.10;22.10;;;;;;;12.06;67.97;99575.09;236185;1194;139560;-61
2021/09/23 00:51:32;;;;;;;35.30;21.40;;;;;;;12.04;68.05;99572.18;235886;1195;139246;-62
2021/09/23 00:56:37;;;;;;;33.70;21.10;;;;;;;12.02;68.07;99571.37;236241;1195;139971;-61
2021/09/23 01:01:45;;;;;;;37.60;22.80;;;;;;;12.06;68.33;99575.07;235979;1195;139261;-59
2021/09/23 01:06:52;;;;;;;37.00;22.70;;;;;;;12.11;68.49;99565.18;236368;1195;139247;-61
2021/09/23 01:11:55;;;;;;;35.60;23.40;;;;;;;12.15;68.20;99569.08;236115;1195;139257;-61
2021/09/23 01:16:58;;;;;;;39.80;24.90;;;;;;;12.09;68.24;99561.36;235897;1190;138828;-59
2021/09/23 01:22:16;;;;;;;37.10;23.70;;;;;;;12.06;68.04;99560.66;236288;1195;140664;-61
2021/09/23 01:27:59;;;;;;;38.50;24.30;;;;;;;11.95;68.30;99570.08;235666;1195;139214;-61
2021/09/23 01:33:18;;;;;;;41.60;24.20;;;;;;;11.87;68.27;99552.55;235419;1195;139632;-64
2021/09/23 01:38:24;;;;;;;39.40;25.20;;;;;;;11.85;68.34;99542.90;236012;1195;139265;-60
2021/09/23 01:43:28;;;;;;;39.30;25.30;;;;;;;11.84;68.42;99553.98;236254;1195;138856;-60
2021/09/23 01:48:31;;;;;;;40.70;26.40;;;;;;;11.83;68.60;99553.47;236211;1195;139988;-61
2021/09/23 01:53:34;;;;;;;45.40;28.80;;;;;;;11.82;68.59;99558.48;236105;1195;138796;-62
2021/09/23 01:58:38;;;;;;;43.60;27.30;;;;;;;11.82;68.47;99540.18;236034;1195;139659;-63
2021/09/23 02:03:41;;;;;;;45.10;27.20;;;;;;;11.79;68.57;99523.13;236150;1195;138867;-61
2021/09/23 02:08:49;;;;;;;39.70;25.50;;;;;;;11.80;68.40;99506.52;235976;1195;139726;-61
2021/09/23 02:13:53;;;;;;;40.80;26.20;;;;;;;11.83;68.53;99498.55;235894;1195;139072;-63
2021/09/23 02:18:56;;;;;;;41.30;27.10;;;;;;;11.86;68.62;99501.05;236149;1195;139009;-61
2021/09/23 02:24:00;;;;;;;44.20;26.50;;;;;;;11.84;68.74;99498.50;236220;1195;139877;-61
2021/09/23 02:29:03;;;;;;;38.90;26.30;;;;;;;11.82;68.49;99493.06;235720;1195;139538;-62
2021/09/23 02:34:07;;;;;;;44.80;25.60;;;;;;;11.79;68.53;99481.38;234407;1195;139522;-61
2021/09/23 02:39:10;;;;;;;42.70;26.10;;;;;;;11.73;68.41;99479.73;235795;1195;140583;-61
2021/09/23 02:44:15;;;;;;;39.30;26.10;;;;;;;11.70;68.71;99473.34;235964;1195;139245;-62
2021/09/23 02:49:19;;;;;;;46.70;27.30;;;;;;;11.67;68.72;99457.75;236174;1195;139116;-62
2021/09/23 02:54:22;;;;;;;43.80;27.30;;;;;;;11.62;68.52;99468.14;235960;1195;139347;-61
2021/09/23 02:59:25;;;;;;;44.50;29.50;;;;;;;11.57;68.94;99471.13;235949;1195;139512;-61
2021/09/23 03:04:28;;;;;;;45.00;28.50;;;;;;;11.59;68.79;99461.55;235831;1195;139446;-61
2021/09/23 03:09:32;;;;;;;43.10;28.40;;;;;;;11.54;69.04;99459.36;235795;1195;138316;-62
2021/09/23 03:14:35;;;;;;;38.90;26.30;;;;;;;11.49;68.86;99458.63;235806;1195;139632;-62
2021/09/23 03:19:38;;;;;;;45.30;28.20;;;;;;;11.47;69.11;99456.95;236008;1195;140085;-61
2021/09/23 03:24:42;;;;;;;46.10;29.60;;;;;;;11.44;68.88;99454.09;236150;1195;139382;-61
2021/09/23 03:29:45;;;;;;;46.20;30.60;;;;;;;11.41;69.03;99451.48;235861;1195;138921;-61
2021/09/23 03:34:48;;;;;;;52.70;34.30;;;;;;;11.39;69.35;99458.30;235674;1194;139997;-60
2021/09/23 03:39:51;;;;;;;51.90;34.00;;;;;;;11.39;69.43;99457.64;236343;1195;138851;-60
2021/09/23 03:44:54;;;;;;;49.90;33.20;;;;;;;11.39;69.40;99459.39;236122;1195;140422;-60
2021/09/23 03:49:57;;;;;;;57.00;35.40;;;;;;;11.40;69.35;99466.09;236232;1194;141061;-62
2021/09/23 03:55:01;;;;;;;544.90;383.10;;;;;;;11.43;69.42;99468.39;236170;1195;139147;-62
2021/09/23 04:00:05;;;;;;;80.10;54.20;;;;;;;11.52;69.71;99460.36;235985;1195;140491;-61
2021/09/23 04:05:18;;;;;;;66.10;38.70;;;;;;;11.67;69.97;99465.02;236050;1194;139469;-60
2021/09/23 04:10:22;;;;;;;66.20;38.90;;;;;;;11.73;69.70;99451.50;235870;1195;138656;-57
2021/09/23 04:15:25;;;;;;;56.80;34.70;;;;;;;11.66;69.35;99447.49;235833;1195;139280;-60
2021/09/23 04:20:35;;;;;;;55.70;34.50;;;;;;;11.66;69.67;99445.70;235941;1195;139984;-59
2021/09/23 04:25:39;;;;;;;54.40;33.30;;;;;;;11.65;69.53;99441.86;236079;1195;139378;-58
2021/09/23 04:30:42;;;;;;;50.90;32.00;;;;;;;11.64;69.75;99441.94;236034;1187;138693;-60
2021/09/23 04:35:47;;;;;;;52.80;32.10;;;;;;;11.57;69.40;99434.49;236109;1195;139102;-61
2021/09/23 04:40:50;;;;;;;53.30;33.00;;;;;;;11.53;69.66;99428.12;236078;1195;139027;-60
2021/09/23 04:45:54;;;;;;;51.10;30.80;;;;;;;11.51;69.58;99436.09;235837;1195;139516;-60
2021/09/23 04:50:57;;;;;;;51.70;28.30;;;;;;;11.54;69.87;99433.04;235984;1195;140400;-61
2021/09/23 04:56:01;;;;;;;45.70;29.30;;;;;;;11.60;69.82;99429.88;235898;1194;140132;-65
2021/09/23 05:01:06;;;;;;;48.70;27.90;;;;;;;11.66;70.24;99423.86;236284;1195;139164;-61
2021/09/23 05:06:10;;;;;;;43.40;26.80;;;;;;;11.64;69.93;99417.21;236081;1194;139142;-62
2021/09/23 05:11:13;;;;;;;40.70;25.10;;;;;;;11.68;70.14;99414.83;236019;1195;138980;-62
2021/09/23 05:16:18;;;;;;;34.30;21.20;;;;;;;11.70;70.23;99412.02;235991;1195;139149;-63
2021/09/23 05:21:21;;;;;;;29.70;18.90;;;;;;;11.75;70.03;99405.66;236095;1195;140306;-62
2021/09/23 05:26:24;;;;;;;31.20;19.20;;;;;;;11.84;70.44;99403.91;236175;1195;139035;-63
2021/09/23 05:31:28;;;;;;;29.10;18.10;;;;;;;11.91;70.25;99406.33;235954;1195;139423;-62
2021/09/23 05:36:31;;;;;;;27.10;16.90;;;;;;;11.93;70.08;99405.84;236098;1195;139245;-60
2021/09/23 05:41:41;;;;;;;28.60;15.90;;;;;;;11.94;70.19;99413.08;236110;1194;139248;-59
2021/09/23 05:46:44;;;;;;;24.90;15.20;;;;;;;11.93;69.99;99401.40;236231;1195;141690;-62
2021/09/23 05:51:48;;;;;;;26.30;15.20;;;;;;;11.98;70.09;99408.90;235937;1195;139669;-62
2021/09/23 05:56:53;;;;;;;23.20;14.50;;;;;;;12.03;70.21;99400.58;236234;1195;139508;-62
2021/09/23 06:01:57;;;;;;;23.80;15.00;;;;;;;12.06;70.09;99401.32;236336;1195;138732;-62
2021/09/23 06:07:00;;;;;;;22.80;15.20;;;;;;;12.06;70.02;99396.30;236373;1194;139009;-63
2021/09/23 06:12:04;;;;;;;20.20;12.80;;;;;;;12.04;69.71;99392.88;236482;1193;139782;-61
2021/09/23 06:17:07;;;;;;;25.70;14.30;;;;;;;12.01;69.60;99390.63;236159;1194;139195;-59
2021/09/23 06:22:11;;;;;;;24.40;13.90;;;;;;;11.99;69.92;99385.38;236358;1195;139588;-60
2021/09/23 06:27:14;;;;;;;23.40;15.00;;;;;;;12.00;69.93;99392.95;236276;1195;139514;-59
2021/09/23 06:32:17;;;;;;;20.50;12.60;;;;;;;12.05;70.12;99392.50;236383;1195;139389;-60
2021/09/23 06:37:21;;;;;;;22.20;12.90;;;;;;;12.07;69.87;99387.38;236102;1195;139891;-62
2021/09/23 06:42:24;;;;;;;18.90;12.30;;;;;;;12.13;70.10;99377.08;236087;1195;139822;-63
2021/09/23 06:47:28;;;;;;;21.70;13.40;;;;;;;12.19;69.99;99373.65;236381;1192;139692;-61
2021/09/23 06:52:31;;;;;;;21.90;13.50;;;;;;;12.20;69.96;99364.89;236272;1194;138923;-60
2021/09/23 06:57:34;;;;;;;19.80;11.50;;;;;;;12.24;69.85;99365.29;235957;1195;139893;-60
2021/09/23 07:02:56;;;;;;;21.60;11.80;;;;;;;12.29;69.84;99360.55;236166;1195;140013;-61
2021/09/23 07:08:10;;;;;;;17.00;11.30;;;;;;;12.31;69.80;99353.66;236178;1195;139688;-59
2021/09/23 07:13:14;;;;;;;20.40;12.70;;;;;;;12.42;69.75;99348.88;236486;1195;139417;-62
2021/09/23 07:18:17;;;;;;;19.50;12.30;;;;;;;12.47;69.76;99343.02;236000;1195;140878;-62
2021/09/23 07:23:20;;;;;;;19.00;10.00;;;;;;;12.56;69.93;99333.36;236291;1195;138941;-62
2021/09/23 07:28:25;;;;;;;12.50;8.60;;;;;;;12.67;69.67;99330.69;236384;1195;139759;-62
2021/09/23 07:33:28;;;;;;;13.70;8.90;;;;;;;12.84;69.68;99329.23;236063;1195;139056;-61
2021/09/23 07:38:32;;;;;;;14.20;9.10;;;;;;;12.95;69.70;99329.48;236295;1195;139654;-59
2021/09/23 07:43:35;;;;;;;12.50;8.40;;;;;;;13.04;69.38;99317.17;235790;1194;138756;-63
2021/09/23 07:48:38;;;;;;;13.40;7.40;;;;;;;13.13;69.37;99334.94;236236;1195;139171;-61
2021/09/23 07:53:42;;;;;;;16.40;7.30;;;;;;;13.19;69.24;99331.48;236036;1195;139786;-61
2021/09/23 07:58:45;;;;;;;13.30;7.00;;;;;;;13.29;69.23;99333.86;235988;1195;138717;-62
2021/09/23 08:03:50;;;;;;;17.40;8.30;;;;;;;13.37;69.09;99326.71;236129;1195;138986;-64
2021/09/23 08:08:57;;;;;;;13.70;7.00;;;;;;;13.45;68.97;99322.77;236232;1195;139378;-62
2021/09/23 08:14:01;;;;;;;15.70;6.90;;;;;;;13.53;69.01;99317.21;236181;1195;139294;-63
2021/09/23 08:19:04;;;;;;;14.10;6.80;;;;;;;13.65;68.92;99318.48;236089;1195;141022;-63
2021/09/23 08:24:20;;;;;;;11.30;6.00;;;;;;;13.80;68.84;99312.64;236084;1195;139435;-61
2021/09/23 08:29:24;;;;;;;11.90;5.80;;;;;;;13.97;68.79;99313.92;236137;1195;139109;-61
2021/09/23 08:34:27;;;;;;;12.60;5.60;;;;;;;14.08;68.56;99304.80;235886;1195;138655;-61
2021/09/23 08:39:31;;;;;;;9.80;4.50;;;;;;;14.13;68.43;99291.20;235911;1195;139168;-61
2021/09/23 08:44:35;;;;;;;13.60;5.60;;;;;;;14.30;68.33;99285.32;235667;1195;139284;-61
2021/09/23 08:49:40;;;;;;;12.40;4.30;;;;;;;14.46;68.17;99280.16;235953;1194;138892;-61
2021/09/23 08:54:44;;;;;;;9.10;4.40;;;;;;;14.61;68.06;99279.83;235951;1195;138622;-61
2021/09/23 08:59:48;;;;;;;14.50;6.30;;;;;;;14.79;68.06;99282.05;235840;1195;138587;-61
2021/09/23 09:04:56;;;;;;;10.80;4.30;;;;;;;14.89;67.44;99278.41;236029;1195;139696;-60
2021/09/23 09:10:20;;;;;;;10.30;3.90;;;;;;;14.86;67.00;99272.73;236067;1195;139111;-61
2021/09/23 09:15:50;;;;;;;11.80;3.60;;;;;;;14.88;66.99;99274.02;235402;1195;139458;-60
2021/09/23 09:21:11;;;;;;;69.90;43.30;;;;;;;14.94;66.97;99272.33;235572;1195;139268;-63
2021/09/23 09:26:21;;;;;;;15.20;4.70;;;;;;;15.05;66.79;99273.60;235515;1196;139285;-61
2021/09/23 09:31:27;;;;;;;11.80;3.80;;;;;;;15.12;66.53;99272.55;236291;1194;139230;-61
2021/09/23 09:36:35;;;;;;;9.20;3.30;;;;;;;15.11;66.03;99265.67;235726;1195;139227;-61
2021/09/23 09:41:42;;;;;;;9.20;3.70;;;;;;;15.10;65.87;99254.48;235759;1195;139397;-61
2021/09/23 09:46:51;;;;;;;12.00;3.30;;;;;;;15.09;65.87;99254.36;235958;1195;139755;-59
2021/09/23 09:52:00;;;;;;;14.30;3.70;;;;;;;15.14;65.88;99232.68;236002;1195;141300;-59
2021/09/23 09:57:10;;;;;;;9.00;2.90;;;;;;;15.23;65.66;99234.73;235377;1195;138895;-61
2021/09/23 10:02:17;;;;;;;13.40;3.40;;;;;;;15.26;65.51;99227.02;235773;1195;139270;-62
2021/09/23 10:07:23;;;;;;;12.80;3.20;;;;;;;15.25;65.31;99215.42;236106;1195;138452;-61
2021/09/23 10:12:28;;;;;;;13.70;3.30;;;;;;;15.26;65.16;99225.34;235965;1195;139579;-62
2021/09/23 10:17:32;;;;;;;17.50;3.80;;;;;;;15.30;65.30;99219.88;235695;1195;138826;-61
2021/09/23 10:22:37;;;;;;;12.50;3.50;;;;;;;15.33;65.17;99209.77;235457;1194;139402;-61
2021/09/23 10:27:58;;;;;;;13.90;3.90;;;;;;;15.40;65.14;99192.13;235806;1195;139369;-62
2021/09/23 10:33:04;;;;;;;11.20;3.60;;;;;;;15.46;65.04;99191.04;236110;1195;139896;-62
2021/09/23 10:38:09;;;;;;;13.90;3.80;;;;;;;15.57;64.71;99185.52;235966;1195;140000;-61
2021/09/23 10:43:18;;;;;;;14.40;3.80;;;;;;;15.67;64.67;99175.62;235934;1195;139810;-61
2021/09/23 10:48:27;;;;;;;146.70;97.80;;;;;;;15.74;64.66;99163.94;235800;1195;139423;-63
2021/09/23 10:53:36;;;;;;;24.80;7.50;;;;;;;15.83;64.63;99146.20;235903;1195;140752;-61
2021/09/23 10:58:51;;;;;;;18.20;4.90;;;;;;;15.94;64.30;99141.41;235969;1195;138789;-60
2021/09/23 11:03:57;;;;;;;18.40;4.80;;;;;;;15.95;63.88;99124.30;235649;1195;138773;-61
2021/09/23 11:09:26;;;;;;;16.00;4.80;;;;;;;15.97;63.71;99123.61;235828;1195;139189;-60
2021/09/23 11:14:33;;;;;;;12.50;4.80;;;;;;;15.99;63.53;99101.83;235550;1195;138996;-60
2021/09/23 11:19:40;;;;;;;12.50;5.00;;;;;;;16.01;63.35;99080.88;235779;1195;139622;-59
2021/09/23 11:24:45;;;;;;;14.20;4.90;;;;;;;16.07;63.16;99086.61;235896;1195;139100;-59
2021/09/23 11:29:49;;;;;;;233.00;135.20;;;;;;;16.11;63.16;99072.33;235624;1196;138937;-61
2021/09/23 11:34:58;;;;;;;19.20;8.30;;;;;;;16.17;62.95;99072.40;235525;1196;143829;-59
2021/09/23 11:40:05;;;;;;;11.90;5.50;;;;;;;16.21;63.09;99070.63;236079;1195;139643;-61
2021/09/23 11:45:18;;;;;;;13.60;6.20;;;;;;;16.16;62.40;99058.49;235458;1195;139271;-60
2021/09/23 11:50:42;;;;;;;13.20;6.20;;;;;;;16.12;62.36;99056.14;235798;1195;140432;-60
2021/09/23 11:56:16;;;;;;;13.20;6.70;;;;;;;16.11;62.33;99052.44;235785;1196;139651;-60
2021/09/23 12:01:21;;;;;;;13.00;6.90;;;;;;;16.12;62.00;99035.73;235852;1195;138772;-62
2021/09/23 12:06:26;;;;;;;13.00;7.50;;;;;;;16.11;61.92;99028.11;235334;1195;139637;-62
2021/09/23 12:11:48;;;;;;;15.30;7.90;;;;;;;16.12;61.75;99026.27;235721;1195;138857;-61
2021/09/23 12:17:07;;;;;;;11.30;7.60;;;;;;;16.13;61.44;99017.24;234534;1195;138487;-62
2021/09/23 12:22:33;;;;;;;13.60;6.50;;;;;;;16.13;61.46;98996.43;236457;1195;140454;-61
2021/09/23 12:27:38;;;;;;;76.20;41.60;;;;;;;16.15;61.21;98977.66;236086;1195;139059;-62
2021/09/23 12:32:43;;;;;;;10.30;7.40;;;;;;;16.20;61.29;98964.56;235988;1195;139419;-61
2021/09/23 12:37:50;;;;;;;15.40;6.30;;;;;;;16.20;60.99;98957.91;236303;1195;138889;-61
2021/09/23 12:43:15;;;;;;;13.80;7.10;;;;;;;16.20;61.23;98945.77;236264;1195;141437;-62
2021/09/23 12:48:20;;;;;;;15.10;6.90;;;;;;;16.23;61.18;98949.40;235658;1195;138998;-61
2021/09/23 12:53:23;;;;;;;15.70;7.10;;;;;;;16.25;61.24;98941.67;236178;1195;138577;-61
2021/09/23 12:58:28;;;;;;;;;;;;;;;16.26;61.26;98939.33;235954;1195;139021;-61
2021/09/23 13:03:32;;;;;;;16.70;7.30;;;;;;;16.28;61.38;98930.37;236038;1195;124745;-60
2021/09/23 13:09:07;;;;;;;10.90;6.50;;;;;;;16.37;61.44;98909.33;236043;1195;139819;-63
2021/09/23 13:14:26;;;;;;;11.10;6.70;;;;;;;16.52;61.70;98902.77;236405;1195;138658;-63
2021/09/23 13:19:32;;;;;;;14.80;8.10;;;;;;;16.83;61.90;98890.92;236209;1194;139301;-61
2021/09/23 13:25:08;;;;;;;11.90;6.90;;;;;;;16.98;61.50;98883.09;236199;1195;139975;-62
2021/09/23 13:30:15;;;;;;;12.20;6.40;;;;;;;17.22;61.48;98875.35;236161;1195;138858;-60
2021/09/23 13:35:27;;;;;;;14.90;6.30;;;;;;;17.54;61.19;98867.92;236118;1195;139825;-61
2021/09/23 13:40:34;;;;;;;10.90;6.00;;;;;;;17.60;60.92;98852.57;236213;1195;139032;-61
2021/09/23 13:45:40;;;;;;;15.10;7.20;;;;;;;17.56;60.59;98847.32;236244;1195;138989;-61
2021/09/23 13:50:45;;;;;;;12.40;6.90;;;;;;;17.47;60.46;98837.38;235974;1195;141676;-61
2021/09/23 13:55:50;;;;;;;12.00;7.00;;;;;;;17.38;60.36;98840.29;235795;1196;139281;-62
2021/09/23 14:00:55;;;;;;;12.90;6.90;;;;;;;17.30;60.66;98836.61;235815;1195;138781;-60
2021/09/23 14:06:00;;;;;;;12.90;8.00;;;;;;;17.24;60.64;98840.37;236017;1195;138829;-63
2021/09/23 14:11:04;;;;;;;14.30;7.10;;;;;;;17.18;60.72;98828.72;235862;1195;138644;-62
2021/09/23 14:16:42;;;;;;;12.50;7.40;;;;;;;17.14;60.58;98820.39;235514;1196;138803;-62
2021/09/23 14:21:46;;;;;;;129.60;89.40;;;;;;;17.08;60.75;98810.70;235459;1196;139015;-61
2021/09/23 14:26:49;;;;;;;16.20;9.60;;;;;;;17.06;60.74;98799.97;235675;1195;138988;-61
2021/09/23 14:31:54;;;;;;;20.10;8.20;;;;;;;17.03;60.65;98792.86;236045;1195;138433;-61
2021/09/23 14:36:57;;;;;;;14.30;7.70;;;;;;;16.98;60.60;98791.90;236005;1194;139459;-61
2021/09/23 14:42:01;;;;;;;15.00;7.80;;;;;;;16.93;60.71;98790.77;235649;1195;138565;-64
2021/09/23 14:47:04;;;;;;;14.70;8.20;;;;;;;16.85;60.71;98795.75;235881;1195;138685;-61
2021/09/23 14:52:07;;;;;;;30.70;20.10;;;;;;;16.78;60.74;98784.55;235425;1195;138738;-60
2021/09/23 14:57:11;;;;;;;13.70;7.80;;;;;;;16.76;60.81;98783.68;236112;1195;140850;-61
2021/09/23 15:02:14;;;;;;;18.20;10.10;;;;;;;16.72;60.72;98772.70;235777;1195;138667;-60
2021/09/23 15:07:17;;;;;;;14.00;7.70;;;;;;;16.69;61.04;98765.30;235929;1195;139902;-60
2021/09/23 15:12:22;;;;;;;17.20;8.50;;;;;;;16.65;61.10;98756.39;235499;1195;139061;-60
2021/09/23 15:17:25;;;;;;;14.90;7.90;;;;;;;16.60;61.10;98747.70;235956;1187;139079;-61
2021/09/23 15:22:29;;;;;;;14.10;7.00;;;;;;;16.56;61.23;98748.06;235335;1196;140331;-60
2021/09/23 15:27:33;;;;;;;15.90;7.10;;;;;;;16.55;61.42;98739.73;235480;1195;141096;-61
2021/09/23 15:32:36;;;;;;;14.40;8.00;;;;;;;16.62;61.42;98730.14;235638;1196;139328;-62
2021/09/23 15:37:39;;;;;;;247.30;178.80;;;;;;;16.70;61.57;98722.08;235945;1195;139404;-62
2021/09/23 15:42:43;;;;;;;16.40;10.30;;;;;;;16.78;61.79;98714.02;236187;1195;139281;-62
2021/09/23 15:47:46;;;;;;;14.40;8.50;;;;;;;16.83;61.54;98702.07;235586;1195;139466;-61
2021/09/23 15:52:53;;;;;;;14.90;8.20;;;;;;;16.82;61.57;98697.20;235905;1195;139341;-62
2021/09/23 15:57:56;;;;;;;14.60;7.40;;;;;;;16.77;61.42;98694.55;235558;1195;139005;-63
2021/09/23 16:03:00;;;;;;;15.00;8.80;;;;;;;16.71;61.48;98688.78;236057;1195;139735;-61
2021/09/23 16:08:07;;;;;;;16.70;7.70;;;;;;;16.69;61.54;98678.13;236121;1195;138354;-61
2021/09/23 16:13:11;;;;;;;17.00;8.00;;;;;;;16.67;61.70;98670.21;235672;1195;139801;-61
2021/09/23 16:18:14;;;;;;;16.30;8.50;;;;;;;16.64;61.57;98664.40;235733;1196;138956;-63
2021/09/23 16:23:22;;;;;;;103.80;89.30;;;;;;;16.62;61.81;98654.54;235795;1195;138755;-61
2021/09/23 16:28:25;;;;;;;20.00;10.20;;;;;;;16.62;61.99;98648.11;235557;1195;139234;-63
2021/09/23 16:33:28;;;;;;;13.80;7.80;;;;;;;16.63;62.09;98636.20;235585;1195;140216;-64
2021/09/23 16:38:32;;;;;;;19.80;8.50;;;;;;;16.65;62.06;98632.45;236055;1195;139227;-67
2021/09/23 16:43:36;;;;;;;16.80;8.70;;;;;;;16.66;62.07;98631.83;235914;1195;138380;-61
2021/09/23 16:48:39;;;;;;;16.60;8.70;;;;;;;16.64;62.01;98631.45;235584;1195;139771;-63
2021/09/23 16:53:48;;;;;;;15.00;8.30;;;;;;;16.61;62.02;98626.95;235765;1195;139380;-68
2021/09/23 16:59:11;;;;;;;14.50;8.80;;;;;;;16.57;62.07;98616.90;235909;1195;138815;-59
2021/09/23 17:04:17;;;;;;;14.40;8.70;;;;;;;16.54;62.23;98603.50;235636;1195;138899;-64
2021/09/23 17:09:20;;;;;;;15.90;9.00;;;;;;;16.48;62.09;98586.56;235539;1196;138990;-66
2021/09/23 17:14:24;;;;;;;14.20;9.00;;;;;;;16.43;62.00;98585.73;235702;1195;139043;-68
2021/09/23 17:19:28;;;;;;;18.40;9.40;;;;;;;16.36;62.34;98582.45;235840;1195;138792;-69
2021/09/23 17:24:33;;;;;;;15.10;8.00;;;;;;;16.30;62.26;98574.04;236122;1195;138986;-61
2021/09/23 17:29:36;;;;;;;12.90;8.30;;;;;;;16.28;62.30;98576.56;235520;1195;139698;-62
2021/09/23 17:34:40;;;;;;;14.00;8.50;;;;;;;16.28;62.34;98564.75;235704;1195;139851;-62
2021/09/23 17:39:44;;;;;;;100.10;65.60;;;;;;;16.30;62.39;98552.42;235509;1196;139612;-62
2021/09/23 17:44:56;;;;;;;23.20;12.60;;;;;;;16.34;62.58;98543.52;235738;1195;139347;-62
2021/09/23 17:50:03;;;;;;;19.20;9.10;;;;;;;16.31;62.26;98532.27;236108;1194;138925;-61
2021/09/23 17:55:07;;;;;;;16.20;8.80;;;;;;;16.24;62.11;98528.96;235588;1195;138702;-61
2021/09/23 18:00:11;;;;;;;18.10;9.50;;;;;;;16.16;62.52;98517.80;235658;1196;138816;-61
2021/09/23 18:05:14;;;;;;;14.60;8.80;;;;;;;16.10;62.27;98507.63;235517;1195;138845;-60
2021/09/23 18:10:18;;;;;;;13.90;8.10;;;;;;;16.03;62.36;98502.85;235775;1189;140252;-61
2021/09/23 18:15:21;;;;;;;12.50;7.80;;;;;;;15.98;62.27;98501.20;235633;1189;139069;-62
2021/09/23 18:20:26;;;;;;;13.30;7.00;;;;;;;15.94;62.44;98496.20;235892;1195;139911;-62
2021/09/23 18:25:30;;;;;;;16.50;7.90;;;;;;;15.97;62.60;98490.52;235601;1195;139842;-60
2021/09/23 18:30:37;;;;;;;12.10;7.80;;;;;;;16.00;62.65;98484.33;235406;1195;139762;-62
2021/09/23 18:35:42;;;;;;;13.80;7.70;;;;;;;16.01;62.62;98479.38;235585;1194;139104;-61
2021/09/23 18:40:46;;;;;;;15.60;7.60;;;;;;;16.01;62.69;98462.28;236118;1195;139379;-61
2021/09/23 18:45:49;;;;;;;12.10;7.50;;;;;;;15.97;62.50;98455.87;235296;1195;138889;-60
2021/09/23 18:50:52;;;;;;;14.70;8.30;;;;;;;15.93;62.54;98449.82;235376;1195;138783;-61
2021/09/23 18:55:55;;;;;;;11.10;7.90;;;;;;;15.92;62.69;98430.77;236086;1195;138968;-59
2021/09/23 19:00:59;;;;;;;11.60;7.70;;;;;;;15.88;62.61;98424.78;236105;1195;138456;-62
2021/09/23 19:06:02;;;;;;;60.40;37.30;;;;;;;15.85;62.71;98409.30;236218;1195;139415;-61
2021/09/23 19:11:06;;;;;;;15.00;7.30;;;;;;;15.82;62.73;98402.48;236288;1195;138996;-59
2021/09/23 19:16:09;;;;;;;12.20;7.30;;;;;;;15.82;62.70;98400.29;235528;1195;140301;-61
2021/09/23 19:21:12;;;;;;;12.20;6.70;;;;;;;15.86;62.86;98394.77;236093;1194;139119;-62
2021/09/23 19:26:16;;;;;;;9.60;6.60;;;;;;;15.91;63.09;98380.21;235770;1195;141139;-59
2021/09/23 19:31:20;;;;;;;13.90;6.80;;;;;;;15.93;62.80;98372.66;236091;1195;138277;-60
2021/09/23 19:36:25;;;;;;;13.00;6.60;;;;;;;15.94;62.88;98370.42;236029;1195;139046;-61
2021/09/23 19:41:28;;;;;;;12.60;6.60;;;;;;;15.94;62.71;98357.31;235823;1195;141188;-61
2021/09/23 19:46:31;;;;;;;9.60;5.90;;;;;;;15.95;62.94;98347.64;236172;1195;138705;-62
2021/09/23 19:51:34;;;;;;;10.80;6.60;;;;;;;15.93;62.80;98337.75;236101;1195;140381;-61
2021/09/23 19:56:38;;;;;;;9.70;5.40;;;;;;;15.92;62.95;98330.89;235799;1195;139234;-63
2021/09/23 20:01:41;;;;;;;12.80;5.60;;;;;;;15.96;62.80;98322.78;236160;1195;140197;-59
2021/09/23 20:06:44;;;;;;;95.10;57.80;;;;;;;16.01;62.72;98313.36;236240;1195;139188;-61
2021/09/23 20:11:47;;;;;;;10.10;6.40;;;;;;;16.05;63.10;98304.53;236088;1195;139723;-66
2021/09/23 20:16:51;;;;;;;8.90;6.10;;;;;;;16.11;62.89;98292.20;235893;1195;139059;-58
2021/09/23 20:21:54;;;;;;;10.70;5.70;;;;;;;16.12;62.77;98286.52;236190;1195;139020;-60
2021/09/23 20:26:57;;;;;;;10.00;5.30;;;;;;;16.12;62.73;98270.65;236129;1195;139215;-58
2021/09/23 20:32:00;;;;;;;10.10;5.20;;;;;;;16.10;62.82;98262.39;236053;1195;139140;-61
2021/09/23 20:37:04;;;;;;;14.30;5.00;;;;;;;16.09;62.85;98245.52;235676;1194;138881;-63
2021/09/23 20:42:08;;;;;;;10.20;5.30;;;;;;;16.08;62.72;98243.67;235871;1195;140223;-64
2021/09/23 20:47:11;;;;;;;7.50;4.40;;;;;;;16.09;62.81;98237.06;235711;1195;139539;-60
2021/09/23 20:52:15;;;;;;;7.60;4.50;;;;;;;16.15;62.98;98235.59;236107;1194;139904;-62
2021/09/23 20:57:36;;;;;;;9.20;5.30;;;;;;;16.20;62.99;98228.62;235902;1195;138460;-62
2021/09/23 21:02:39;;;;;;;7.80;4.50;;;;;;;16.24;62.87;98232.95;236102;1194;138971;-60
2021/09/23 21:07:43;;;;;;;8.90;5.00;;;;;;;16.24;62.73;98229.50;236071;1195;138669;-60
2021/09/23 21:12:47;;;;;;;7.20;4.60;;;;;;;16.23;62.66;98223.48;235691;1195;140096;-60
2021/09/23 21:17:50;;;;;;;10.10;5.10;;;;;;;16.22;62.58;98220.98;235622;1195;138130;-61
2021/09/23 21:22:54;;;;;;;8.40;4.60;;;;;;;16.21;62.69;98207.45;235882;1195;139082;-59
2021/09/23 21:27:57;;;;;;;8.10;4.10;;;;;;;16.21;62.61;98202.45;236027;1187;139218;-61
2021/09/23 21:33:01;;;;;;;9.30;4.10;;;;;;;16.23;62.55;98190.75;235925;1193;139493;-61
2021/09/23 21:38:04;;;;;;;44.50;30.90;;;;;;;16.30;62.51;98178.47;236246;1194;138884;-60
2021/09/23 21:43:07;;;;;;;9.80;5.10;;;;;;;16.37;62.49;98181.51;236032;1195;138731;-63
2021/09/23 21:48:11;;;;;;;9.40;4.90;;;;;;;16.41;62.51;98168.64;235817;1194;138456;-66
2021/09/23 21:53:14;;;;;;;8.60;4.30;;;;;;;16.42;62.24;98173.83;236279;1195;138448;-66
2021/09/23 21:58:17;;;;;;;6.40;4.40;;;;;;;16.45;62.24;98171.37;236265;1194;139767;-61
2021/09/23 22:03:20;;;;;;;8.70;4.30;;;;;;;16.52;62.34;98164.08;235661;1195;138817;-59
2021/09/23 22:08:24;;;;;;;7.20;4.60;;;;;;;16.58;62.17;98162.48;235608;1195;139490;-61
2021/09/23 22:13:28;;;;;;;8.80;4.20;;;;;;;16.60;62.03;98148.29;236331;1195;138819;-60
2021/09/23 22:18:31;;;;;;;8.40;4.20;;;;;;;16.61;61.92;98131.46;235594;1195;138129;-62
2021/09/23 22:23:35;;;;;;;8.80;4.40;;;;;;;16.63;61.69;98116.62;236193;1195;139937;-61
2021/09/23 22:28:40;;;;;;;12.00;4.60;;;;;;;16.65;61.61;98090.08;236374;1195;138374;-62
2021/09/23 22:33:43;;;;;;;8.30;4.20;;;;;;;16.65;61.64;98081.40;235853;1195;139173;-61
2021/09/23 22:38:46;;;;;;;8.70;4.20;;;;;;;16.69;61.68;98076.52;236077;1195;138767;-61
2021/09/23 22:43:49;;;;;;;7.20;4.00;;;;;;;16.73;61.56;98078.88;236201;1194;138606;-63
2021/09/23 22:48:53;;;;;;;7.30;4.20;;;;;;;16.73;61.69;98073.97;236283;1195;139184;-61
2021/09/23 22:53:58;;;;;;;10.40;4.30;;;;;;;16.75;61.46;98063.98;236175;1195;140061;-62
2021/09/23 22:59:01;;;;;;;7.20;4.60;;;;;;;16.75;61.45;98054.94;236307;1194;139811;-62
2021/09/23 23:04:05;;;;;;;7.40;4.30;;;;;;;16.76;61.26;98061.66;236509;1195;138790;-61